Time;durP1;ratioP1;P1;durP2;ratioP2;P2;SDS_P1;SDS_P2;PMS_P1;PMS_P2;Temp;Humidity;BMP_temperature;BMP_pressure;BME280_temperature;BME280_humidity;BME280_pressure;Samples;Min_cycle;Max_cycle;Signal;HPM_P1;HPM_P2
2023/10/05 00:02:21;;;;;;;8.60;1.73;;;;;;;;;;4940743;29;20160;-78
2023/10/05 00:04:50;;;;;;;8.60;1.83;;;;;;;;;;4940781;29;20031;-78
2023/10/05 00:07:23;;;;;;;7.97;1.48;;;;;;;;;;4943533;29;20114;-79
2023/10/05 00:09:49;;;;;;;10.40;1.63;;;;;;;;;;4941163;29;20024;-78
2023/10/05 00:12:20;;;;;;;9.07;1.85;;;;;;;;;;4940786;29;20106;-78
2023/10/05 00:17:42;;;;;;;6.03;1.35;;;;;;;;;;4935131;29;20040;-78
2023/10/05 00:20:14;;;;;;;7.82;1.30;;;;;;;;;;4940545;29;20024;-78
2023/10/05 00:22:40;;;;;;;11.75;2.10;;;;;;;;;;4940590;29;20020;-79
2023/10/05 00:25:09;;;;;;;9.35;1.48;;;;;;;;;;4940099;29;20100;-78
2023/10/05 00:27:36;;;;;;;8.30;1.95;;;;;;;;;;4942974;29;20020;-78
2023/10/05 00:30:02;;;;;;;7.18;1.85;;;;;;;;;;4942223;29;20055;-78
2023/10/05 00:32:35;;;;;;;6.13;1.73;;;;;;;;;;4941188;29;20031;-78
2023/10/05 00:35:20;;;;;;;13.30;2.25;;;;;;;;;;4940480;29;20106;-78
2023/10/05 00:37:48;;;;;;;10.02;2.28;;;;;;;;;;4940602;29;20078;-78
2023/10/05 00:40:59;;;;;;;9.07;1.70;;;;;;;;;;4940313;29;20019;-78
2023/10/05 00:43:12;;;;;;;;;;;;;;;;;;4937895;29;20118;-78
2023/10/05 00:45:39;;;;;;;10.73;1.80;;;;;;;;;;4940235;29;19982;-78
2023/10/05 00:48:13;;;;;;;7.32;1.80;;;;;;;;;;4939365;29;20055;-78
2023/10/05 00:50:40;;;;;;;10.13;1.50;;;;;;;;;;4939075;29;20023;-78
2023/10/05 00:53:08;;;;;;;9.45;1.63;;;;;;;;;;4938351;29;20027;-78
2023/10/05 00:55:35;;;;;;;5.50;1.83;;;;;;;;;;4938589;29;20078;-78
2023/10/05 00:58:06;;;;;;;4.53;1.63;;;;;;;;;;4938273;29;20526;-78
2023/10/05 01:00:43;;;;;;;10.55;2.38;;;;;;;;;;4938241;29;20083;-78
2023/10/05 01:06:25;;;;;;;7.13;1.70;;;;;;;;;;4939218;29;20051;-78
2023/10/05 01:08:55;;;;;;;5.85;1.98;;;;;;;;;;4940159;29;20059;-78
2023/10/05 01:11:32;;;;;;;9.38;1.83;;;;;;;;;;4938442;29;20024;-78
2023/10/05 01:14:00;;;;;;;5.25;1.30;;;;;;;;;;4940350;29;20031;-78
2023/10/05 01:16:26;;;;;;;8.35;1.92;;;;;;;;;;4939400;29;20028;-78
2023/10/05 01:18:52;;;;;;;7.50;1.70;;;;;;;;;;4938026;29;20027;-78
2023/10/05 01:21:19;;;;;;;11.63;1.70;;;;;;;;;;4937908;29;20055;-78
2023/10/05 01:23:48;;;;;;;7.90;1.80;;;;;;;;;;4937478;29;20063;-78
2023/10/05 01:26:14;;;;;;;12.40;1.80;;;;;;;;;;4937789;29;20019;-78
2023/10/05 01:28:41;;;;;;;9.90;1.75;;;;;;;;;;4937433;29;20031;-78
2023/10/05 01:31:09;;;;;;;8.82;1.85;;;;;;;;;;4937610;29;20058;-78
2023/10/05 01:33:37;;;;;;;11.60;2.08;;;;;;;;;;4937658;29;20024;-78
2023/10/05 01:36:06;;;;;;;9.63;2.15;;;;;;;;;;4937858;29;20024;-78
2023/10/05 01:38:37;;;;;;;7.72;1.98;;;;;;;;;;4937580;29;20103;-78
2023/10/05 01:41:04;;;;;;;10.07;2.00;;;;;;;;;;4937793;29;20107;-78
2023/10/05 01:43:30;;;;;;;5.90;2.15;;;;;;;;;;4937506;29;20072;-78
2023/10/05 01:45:56;;;;;;;12.45;2.90;;;;;;;;;;4937232;29;20058;-78
2023/10/05 01:48:27;;;;;;;13.32;2.00;;;;;;;;;;4936949;29;20059;-78
2023/10/05 01:50:54;;;;;;;9.57;2.25;;;;;;;;;;4937756;29;20023;-78
2023/10/05 01:53:20;;;;;;;11.90;2.20;;;;;;;;;;4937042;29;20445;-78
2023/10/05 01:55:52;;;;;;;9.98;2.25;;;;;;;;;;4936980;29;20534;-78
2023/10/05 01:58:27;;;;;;;10.68;2.20;;;;;;;;;;4937598;29;20020;-78
2023/10/05 02:00:54;;;;;;;9.32;1.88;;;;;;;;;;4937409;29;20027;-78
2023/10/05 02:03:23;;;;;;;6.90;2.03;;;;;;;;;;4937162;29;20031;-78
2023/10/05 02:05:58;;;;;;;8.93;2.35;;;;;;;;;;4936882;29;20032;-78
2023/10/05 02:08:27;;;;;;;8.23;1.70;;;;;;;;;;4937376;29;20020;-78
2023/10/05 02:10:53;;;;;;;10.07;2.15;;;;;;;;;;4936965;29;20026;-78
2023/10/05 02:13:19;;;;;;;11.45;1.92;;;;;;;;;;4937008;29;20027;-78
2023/10/05 02:15:53;;;;;;;13.40;2.53;;;;;;;;;;4937258;29;20039;-78
2023/10/05 02:18:31;;;;;;;9.82;2.08;;;;;;;;;;4937011;29;20016;-78
2023/10/05 02:21:08;;;;;;;7.93;1.77;;;;;;;;;;4936937;29;20043;-78
2023/10/05 02:23:40;;;;;;;8.77;1.98;;;;;;;;;;4937078;29;20060;-78
2023/10/05 02:26:23;;;;;;;8.10;1.83;;;;;;;;;;4937408;29;20489;-78
2023/10/05 02:28:50;;;;;;;9.55;2.05;;;;;;;;;;4936804;29;20103;-78
2023/10/05 02:31:16;;;;;;;11.77;2.28;;;;;;;;;;4936735;29;20031;-78
2023/10/05 02:33:43;;;;;;;12.70;2.30;;;;;;;;;;4935591;29;20079;-78
2023/10/05 02:36:26;;;;;;;11.15;2.38;;;;;;;;;;4936715;29;20032;-78
2023/10/05 02:39:01;;;;;;;7.90;2.00;;;;;;;;;;4936771;29;20027;-78
2023/10/05 02:41:37;;;;;;;11.43;2.45;;;;;;;;;;4936802;29;20475;-78
2023/10/05 02:44:08;;;;;;;11.85;2.80;;;;;;;;;;4937261;29;20042;-78
2023/10/05 02:46:34;;;;;;;12.02;1.88;;;;;;;;;;4936056;29;20565;-78
2023/10/05 02:49:00;;;;;;;7.90;1.95;;;;;;;;;;4936671;29;20023;-78
2023/10/05 02:51:27;;;;;;;10.63;1.80;;;;;;;;;;4936499;29;20031;-78
2023/10/05 02:54:03;;;;;;;9.82;2.17;;;;;;;;;;4936455;29;20035;-78
2023/10/05 02:56:31;;;;;;;8.20;2.08;;;;;;;;;;4936747;29;20179;-78
2023/10/05 02:59:07;;;;;;;11.65;2.38;;;;;;;;;;4936437;29;20055;-78
2023/10/05 03:01:34;;;;;;;11.77;2.88;;;;;;;;;;4936565;29;20027;-78
2023/10/05 03:04:04;;;;;;;10.50;2.30;;;;;;;;;;4936060;29;20032;-78
2023/10/05 03:06:30;;;;;;;10.85;2.15;;;;;;;;;;4936695;29;20105;-78
2023/10/05 03:09:06;;;;;;;9.30;2.22;;;;;;;;;;4936367;29;20046;-78
2023/10/05 03:11:39;;;;;;;12.35;2.58;;;;;;;;;;4936690;29;20023;-78
2023/10/05 03:14:06;;;;;;;11.82;2.08;;;;;;;;;;4936005;29;20027;-77
2023/10/05 03:16:43;;;;;;;9.02;2.17;;;;;;;;;;4936384;29;20034;-78
2023/10/05 03:19:11;;;;;;;12.93;2.15;;;;;;;;;;4936615;29;20071;-78
2023/10/05 03:21:38;;;;;;;16.58;2.22;;;;;;;;;;4936228;29;20023;-78
2023/10/05 03:24:04;;;;;;;12.93;2.40;;;;;;;;;;4935842;29;20395;-78
2023/10/05 03:26:30;;;;;;;14.48;2.80;;;;;;;;;;4935985;29;20024;-78
2023/10/05 03:28:56;;;;;;;13.07;2.42;;;;;;;;;;4936201;29;20045;-78
2023/10/05 03:31:31;;;;;;;10.40;2.17;;;;;;;;;;4936076;29;20402;-78
2023/10/05 03:33:57;;;;;;;12.43;1.83;;;;;;;;;;4936499;29;20024;-78
2023/10/05 03:36:24;;;;;;;9.10;2.17;;;;;;;;;;4935873;29;20107;-78
2023/10/05 03:38:56;;;;;;;9.57;2.15;;;;;;;;;;4936407;29;20027;-78
2023/10/05 03:41:26;;;;;;;7.15;1.92;;;;;;;;;;4935877;29;20087;-78
2023/10/05 03:43:55;;;;;;;17.40;2.72;;;;;;;;;;4935658;29;20032;-78
2023/10/05 03:46:24;;;;;;;9.23;2.15;;;;;;;;;;4935004;29;20056;-78
2023/10/05 03:48:50;;;;;;;9.80;2.42;;;;;;;;;;4936029;29;20348;-78
2023/10/05 03:51:16;;;;;;;10.40;2.40;;;;;;;;;;4935767;29;20042;-78
2023/10/05 03:53:48;;;;;;;10.95;2.10;;;;;;;;;;4936196;29;20042;-78
2023/10/05 03:56:17;;;;;;;13.57;2.28;;;;;;;;;;4935988;29;20020;-78
2023/10/05 03:58:45;;;;;;;14.43;2.38;;;;;;;;;;4936194;29;20111;-78
2023/10/05 04:01:12;;;;;;;12.32;2.20;;;;;;;;;;4940442;29;20023;-78
2023/10/05 04:03:38;;;;;;;8.98;2.22;;;;;;;;;;4941204;29;20023;-78
2023/10/05 04:06:17;;;;;;;11.70;2.25;;;;;;;;;;4939193;29;20034;-78
2023/10/05 04:08:44;;;;;;;8.63;2.03;;;;;;;;;;4941439;29;20023;-78
2023/10/05 04:11:11;;;;;;;10.85;2.13;;;;;;;;;;4940890;29;20028;-78
2023/10/05 04:13:38;;;;;;;11.38;2.70;;;;;;;;;;4939534;29;20363;-78
2023/10/05 04:16:12;;;;;;;13.27;1.83;;;;;;;;;;4939554;29;20028;-78
2023/10/05 04:18:38;;;;;;;9.70;2.05;;;;;;;;;;4939501;29;20020;-78
2023/10/05 04:21:06;;;;;;;13.18;2.15;;;;;;;;;;4939113;29;20035;-78
2023/10/05 04:23:32;;;;;;;10.43;2.05;;;;;;;;;;4939322;29;20351;-78
2023/10/05 04:25:58;;;;;;;11.35;2.03;;;;;;;;;;4939309;29;20027;-78
2023/10/05 04:28:33;;;;;;;12.10;2.10;;;;;;;;;;4937476;29;20032;-77
2023/10/05 04:30:59;;;;;;;8.57;2.28;;;;;;;;;;4938922;29;20015;-78
2023/10/05 04:33:29;;;;;;;17.45;3.13;;;;;;;;;;4938854;29;20368;-78
2023/10/05 04:35:55;;;;;;;14.95;2.70;;;;;;;;;;4938565;29;20024;-78
2023/10/05 04:38:25;;;;;;;15.15;2.40;;;;;;;;;;4938506;29;20024;-78
2023/10/05 04:40:54;;;;;;;9.20;2.25;;;;;;;;;;4938416;29;20027;-78
2023/10/05 04:43:21;;;;;;;11.13;2.60;;;;;;;;;;4939140;29;20096;-78
2023/10/05 04:45:47;;;;;;;7.78;2.10;;;;;;;;;;4938975;29;20118;-78
2023/10/05 04:48:13;;;;;;;16.00;2.25;;;;;;;;;;4937175;29;20063;-78
2023/10/05 04:50:41;;;;;;;10.88;1.95;;;;;;;;;;4938482;29;20039;-78
2023/10/05 04:53:11;;;;;;;10.50;2.13;;;;;;;;;;4938997;29;20030;-78
2023/10/05 04:55:44;;;;;;;11.10;2.22;;;;;;;;;;4939796;29;20028;-79
2023/10/05 05:03:47;;;;;;;15.73;2.60;;;;;;;;;;4939318;29;20034;-79
2023/10/05 05:06:14;;;;;;;8.73;2.47;;;;;;;;;;4939380;29;20201;-79
2023/10/05 05:08:40;;;;;;;11.93;2.92;;;;;;;;;;4942262;29;20027;-79
2023/10/05 05:11:18;;;;;;;13.25;2.65;;;;;;;;;;4945417;29;20028;-79
2023/10/05 05:13:51;;;;;;;9.82;2.80;;;;;;;;;;4944423;29;20024;-79
2023/10/05 05:16:17;;;;;;;11.57;3.03;;;;;;;;;;4946276;29;20106;-79
2023/10/05 05:18:44;;;;;;;14.52;2.08;;;;;;;;;;4946467;29;20035;-80
2023/10/05 05:21:11;;;;;;;10.63;2.50;;;;;;;;;;4946992;29;20087;-80
2023/10/05 05:23:37;;;;;;;14.32;2.47;;;;;;;;;;4946826;29;20026;-80
2023/10/05 05:26:03;;;;;;;8.40;2.08;;;;;;;;;;4942730;29;20083;-80
2023/10/05 05:28:30;;;;;;;13.02;3.00;;;;;;;;;;4941098;29;20027;-80
2023/10/05 05:30:56;;;;;;;14.02;2.35;;;;;;;;;;4941258;29;20386;-80
2023/10/05 05:33:22;;;;;;;9.40;2.47;;;;;;;;;;4940776;29;20027;-80
2023/10/05 05:35:49;;;;;;;15.60;3.30;;;;;;;;;;4941364;29;20035;-80
2023/10/05 05:38:15;;;;;;;12.77;2.88;;;;;;;;;;4941560;29;20031;-80
2023/10/05 05:40:43;;;;;;;8.10;2.72;;;;;;;;;;4940094;29;20164;-79
2023/10/05 05:43:11;;;;;;;14.80;2.40;;;;;;;;;;4939704;29;20083;-79
2023/10/05 05:45:43;;;;;;;14.50;2.92;;;;;;;;;;4938882;29;20032;-79
2023/10/05 05:48:13;;;;;;;10.65;2.90;;;;;;;;;;4937246;29;20056;-79
2023/10/05 05:50:40;;;;;;;15.90;2.80;;;;;;;;;;4940274;29;20051;-80
2023/10/05 05:53:11;;;;;;;13.63;2.75;;;;;;;;;;4938269;29;20032;-80
2023/10/05 05:55:39;;;;;;;5.38;1.92;;;;;;;;;;4944829;29;20027;-80
2023/10/05 05:58:05;;;;;;;12.07;2.70;;;;;;;;;;4945553;29;20438;-80
2023/10/05 06:00:31;;;;;;;10.57;2.33;;;;;;;;;;4941929;29;20027;-80
2023/10/05 06:02:58;;;;;;;12.30;2.95;;;;;;;;;;4942144;29;20067;-80
2023/10/05 06:05:25;;;;;;;11.90;2.92;;;;;;;;;;4941896;29;20063;-80
2023/10/05 06:07:51;;;;;;;13.20;3.00;;;;;;;;;;4940570;29;20027;-80
2023/10/05 06:10:17;;;;;;;10.27;2.33;;;;;;;;;;4942090;29;20032;-80
2023/10/05 06:12:45;;;;;;;11.38;2.90;;;;;;;;;;4940634;29;20036;-80
2023/10/05 06:15:13;;;;;;;10.57;3.00;;;;;;;;;;4937833;29;20024;-80
2023/10/05 06:17:39;;;;;;;15.13;2.95;;;;;;;;;;4941325;29;20362;-80
2023/10/05 06:20:07;;;;;;;10.02;2.30;;;;;;;;;;4940743;29;20087;-80
2023/10/05 06:22:33;;;;;;;16.90;2.80;;;;;;;;;;4942773;29;20478;-80
2023/10/05 06:24:59;;;;;;;12.05;2.67;;;;;;;;;;4946305;29;20364;-80
2023/10/05 06:27:25;;;;;;;14.40;2.53;;;;;;;;;;4946992;29;20031;-80
2023/10/05 06:29:52;;;;;;;13.43;3.08;;;;;;;;;;4946719;29;20027;-80
2023/10/05 06:32:18;;;;;;;9.27;2.72;;;;;;;;;;4944893;29;20023;-80
2023/10/05 06:34:44;;;;;;;12.88;2.35;;;;;;;;;;4944117;29;20031;-81
2023/10/05 06:37:11;;;;;;;8.88;2.60;;;;;;;;;;4948054;29;20513;-80
2023/10/05 06:39:37;;;;;;;14.85;2.67;;;;;;;;;;4947572;29;20028;-80
2023/10/05 06:42:04;;;;;;;8.32;2.22;;;;;;;;;;4940874;29;20374;-80
2023/10/05 06:44:30;;;;;;;9.80;2.30;;;;;;;;;;4945476;29;20035;-81
2023/10/05 06:46:56;;;;;;;14.63;3.03;;;;;;;;;;4947575;29;20051;-81
2023/10/05 06:49:23;;;;;;;11.35;2.33;;;;;;;;;;4947320;29;20032;-80
2023/10/05 06:51:49;;;;;;;15.77;2.30;;;;;;;;;;4946724;29;20027;-80
2023/10/05 06:54:15;;;;;;;11.18;3.35;;;;;;;;;;4948088;29;20032;-81
2023/10/05 06:56:47;;;;;;;9.60;2.38;;;;;;;;;;4950496;29;20027;-80
2023/10/05 06:59:13;;;;;;;12.15;2.60;;;;;;;;;;4948761;29;20091;-81
2023/10/05 07:01:39;;;;;;;10.52;2.17;;;;;;;;;;4947949;29;20032;-80
2023/10/05 07:04:08;;;;;;;14.45;2.72;;;;;;;;;;4952003;29;20051;-80
2023/10/05 07:06:34;;;;;;;8.30;2.00;;;;;;;;;;4943820;29;20107;-80
2023/10/05 07:09:00;;;;;;;12.80;2.53;;;;;;;;;;4936997;29;20028;-80
2023/10/05 07:11:26;;;;;;;14.82;2.60;;;;;;;;;;4937717;29;20031;-80
2023/10/05 07:13:52;;;;;;;7.47;2.03;;;;;;;;;;4937082;29;20106;-80
2023/10/05 07:16:18;;;;;;;8.13;2.08;;;;;;;;;;4935738;29;20382;-80
2023/10/05 07:18:44;;;;;;;8.43;2.35;;;;;;;;;;4936727;29;20159;-80
2023/10/05 07:21:11;;;;;;;12.55;2.70;;;;;;;;;;4937334;29;20038;-80
2023/10/05 07:23:37;;;;;;;11.05;2.20;;;;;;;;;;4937705;29;20024;-80
2023/10/05 07:26:04;;;;;;;13.63;3.05;;;;;;;;;;4936875;29;20036;-80
2023/10/05 07:28:31;;;;;;;7.38;2.10;;;;;;;;;;4950429;29;20063;-80
2023/10/05 07:30:57;;;;;;;13.88;2.60;;;;;;;;;;4950484;29;20031;-80
2023/10/05 07:33:23;;;;;;;6.97;2.30;;;;;;;;;;4952175;29;20043;-80
2023/10/05 07:35:50;;;;;;;11.95;2.38;;;;;;;;;;4954463;29;20032;-80
2023/10/05 07:38:16;;;;;;;16.15;2.60;;;;;;;;;;4954994;29;20034;-81
2023/10/05 07:40:45;;;;;;;7.43;2.50;;;;;;;;;;4953990;29;20024;-81
2023/10/05 07:43:11;;;;;;;9.13;2.47;;;;;;;;;;4950115;29;20051;-80
2023/10/05 07:45:37;;;;;;;9.63;2.15;;;;;;;;;;4944705;29;20055;-80
2023/10/05 07:48:06;;;;;;;14.57;3.17;;;;;;;;;;4948461;29;20056;-81
2023/10/05 07:50:32;;;;;;;9.73;2.28;;;;;;;;;;4948565;29;20464;-81
2023/10/05 07:52:58;;;;;;;11.48;2.72;;;;;;;;;;4951499;29;20458;-80
2023/10/05 07:55:24;;;;;;;11.20;2.40;;;;;;;;;;4952081;29;20031;-80
2023/10/05 07:57:53;;;;;;;10.95;2.88;;;;;;;;;;4947674;29;20032;-81
2023/10/05 08:00:20;;;;;;;13.38;2.42;;;;;;;;;;4945962;29;20430;-80
2023/10/05 08:02:46;;;;;;;10.73;2.85;;;;;;;;;;4947178;29;20028;-80
2023/10/05 08:05:12;;;;;;;11.77;2.90;;;;;;;;;;4951254;29;20494;-80
2023/10/05 08:07:38;;;;;;;12.18;2.47;;;;;;;;;;4949694;29;20023;-80
2023/10/05 08:10:15;;;;;;;13.38;2.35;;;;;;;;;;4947314;29;20035;-80
2023/10/05 08:12:42;;;;;;;11.65;2.42;;;;;;;;;;4947070;29;20087;-81
2023/10/05 08:15:08;;;;;;;12.50;2.83;;;;;;;;;;4944418;29;20059;-80
2023/10/05 08:17:34;;;;;;;12.55;3.08;;;;;;;;;;4948651;29;20058;-81
2023/10/05 08:20:00;;;;;;;10.80;2.38;;;;;;;;;;4934064;29;20115;-81
2023/10/05 08:22:26;;;;;;;12.45;3.28;;;;;;;;;;4937792;29;20475;-81
2023/10/05 08:24:53;;;;;;;17.02;2.83;;;;;;;;;;4928590;29;20040;-80
2023/10/05 08:27:24;;;;;;;11.27;2.53;;;;;;;;;;4928148;29;20036;-81
2023/10/05 08:29:51;;;;;;;12.00;2.72;;;;;;;;;;4931271;29;20016;-81
2023/10/05 08:32:17;;;;;;;8.65;2.90;;;;;;;;;;4922835;29;20083;-81
2023/10/05 08:34:44;;;;;;;10.48;3.30;;;;;;;;;;4921903;29;20415;-79
2023/10/05 08:37:14;;;;;;;9.77;2.70;;;;;;;;;;4926353;29;20048;-83
2023/10/05 08:39:41;;;;;;;10.30;2.55;;;;;;;;;;4924935;29;20032;-82
2023/10/05 08:42:07;;;;;;;8.38;2.70;;;;;;;;;;4923945;29;20032;-82
2023/10/05 08:44:38;;;;;;;12.93;3.15;;;;;;;;;;4924694;29;20054;-82
2023/10/05 08:47:11;;;;;;;14.48;3.00;;;;;;;;;;4924478;29;20115;-82
2023/10/05 08:49:37;;;;;;;9.05;3.30;;;;;;;;;;4924162;29;20020;-82
2023/10/05 08:52:13;;;;;;;16.10;3.10;;;;;;;;;;4925570;29;20119;-82
2023/10/05 08:54:40;;;;;;;12.32;2.78;;;;;;;;;;4925379;29;20510;-82
2023/10/05 08:57:10;;;;;;;9.05;2.80;;;;;;;;;;4925130;29;20390;-82
2023/10/05 08:59:36;;;;;;;;;;;;;;;;;;4925746;29;20023;-82
2023/10/05 09:02:02;;;;;;;9.10;2.75;;;;;;;;;;4923173;29;19907;-82
2023/10/05 09:04:43;;;;;;;14.13;2.70;;;;;;;;;;4941667;29;20106;-82
2023/10/05 09:07:38;;;;;;;12.05;2.47;;;;;;;;;;4943059;29;20032;-82
2023/10/05 09:10:08;;;;;;;9.90;2.45;;;;;;;;;;4938851;29;20083;-82
2023/10/05 09:12:34;;;;;;;9.00;2.35;;;;;;;;;;4938504;29;20024;-82
2023/10/05 09:15:18;;;;;;;10.57;2.60;;;;;;;;;;4945379;29;20039;-83
2023/10/05 09:17:57;;;;;;;8.35;2.60;;;;;;;;;;4945412;29;20550;-83
2023/10/05 09:20:24;;;;;;;7.78;2.30;;;;;;;;;;4942050;29;20591;-82
2023/10/05 09:22:51;;;;;;;9.93;2.17;;;;;;;;;;4941697;29;20056;-83
2023/10/05 09:25:26;;;;;;;8.35;1.85;;;;;;;;;;4944171;29;20043;-83
2023/10/05 09:27:52;;;;;;;7.85;1.73;;;;;;;;;;4944073;29;20393;-83
2023/10/05 09:30:22;;;;;;;7.53;1.70;;;;;;;;;;4943448;29;20031;-83
2023/10/05 09:32:48;;;;;;;6.88;1.83;;;;;;;;;;4943804;29;20082;-83
2023/10/05 09:35:27;;;;;;;4.40;1.77;;;;;;;;;;4943335;29;20036;-83
2023/10/05 09:37:58;;;;;;;5.22;1.77;;;;;;;;;;4943918;29;20063;-83
2023/10/05 09:40:24;;;;;;;8.50;2.03;;;;;;;;;;4943642;29;20038;-83
2023/10/05 09:42:53;;;;;;;10.82;1.90;;;;;;;;;;4943019;29;20075;-83
2023/10/05 09:45:20;;;;;;;11.52;1.77;;;;;;;;;;4944517;29;20124;-83
2023/10/05 09:47:47;;;;;;;10.20;2.38;;;;;;;;;;4943351;29;20410;-83
2023/10/05 09:50:15;;;;;;;6.30;1.83;;;;;;;;;;4952276;29;20056;-83
2023/10/05 09:52:46;;;;;;;10.07;2.20;;;;;;;;;;4952823;29;20030;-83
2023/10/05 09:55:19;;;;;;;6.65;1.70;;;;;;;;;;4947235;29;20035;-83
2023/10/05 09:57:56;;;;;;;9.73;1.95;;;;;;;;;;4958223;29;20047;-82
2023/10/05 10:02:57;;;;;;;8.93;2.35;;;;;;;;;;4940418;29;20027;-82
2023/10/05 10:05:30;;;;;;;8.60;2.28;;;;;;;;;;4943548;29;20510;-83
2023/10/05 10:08:02;;;;;;;11.35;2.05;;;;;;;;;;4941735;29;20508;-83
2023/10/05 10:10:29;;;;;;;7.70;1.85;;;;;;;;;;4941214;29;20118;-83
2023/10/05 10:12:56;;;;;;;6.47;1.80;;;;;;;;;;4941591;29;20027;-82
2023/10/05 10:15:29;;;;;;;9.00;2.22;;;;;;;;;;4938501;29;20036;-83
2023/10/05 10:18:14;;;;;;;7.78;2.25;;;;;;;;;;4940117;29;20411;-82
2023/10/05 10:20:45;;;;;;;9.82;2.60;;;;;;;;;;4939838;29;20032;-82
2023/10/05 10:23:18;;;;;;;7.35;2.10;;;;;;;;;;4940347;29;20031;-83
2023/10/05 10:25:44;;;;;;;8.18;2.15;;;;;;;;;;4940764;29;20062;-83
2023/10/05 10:28:15;;;;;;;11.13;2.63;;;;;;;;;;4939264;29;20118;-82
2023/10/05 10:30:46;;;;;;;7.18;2.13;;;;;;;;;;4938839;29;20482;-83
2023/10/05 10:33:35;;;;;;;10.32;2.22;;;;;;;;;;4937669;29;20475;-83
2023/10/05 10:36:04;;;;;;;8.93;2.22;;;;;;;;;;4937380;29;20020;-82
2023/10/05 10:38:30;;;;;;;9.15;2.58;;;;;;;;;;4938428;29;20483;-82
2023/10/05 10:41:15;;;;;;;10.18;2.50;;;;;;;;;;4937047;29;20055;-83
2023/10/05 10:43:49;;;;;;;10.85;2.28;;;;;;;;;;4939611;29;20107;-83
2023/10/05 10:46:28;;;;;;;8.85;2.10;;;;;;;;;;4939418;29;20047;-83
2023/10/05 10:48:59;;;;;;;11.27;2.23;;;;;;;;;;4937752;29;20078;-82
2023/10/05 10:51:31;;;;;;;8.85;1.92;;;;;;;;;;4936847;29;20294;-82
2023/10/05 10:53:59;;;;;;;8.15;2.05;;;;;;;;;;4938072;29;20043;-82
2023/10/05 10:56:28;;;;;;;9.10;1.90;;;;;;;;;;4938388;29;20026;-82
2023/10/05 10:59:09;;;;;;;8.67;2.43;;;;;;;;;;4936810;29;20083;-82
2023/10/05 11:01:42;;;;;;;8.90;2.20;;;;;;;;;;4939039;29;20501;-82
2023/10/05 11:04:23;;;;;;;10.40;2.00;;;;;;;;;;4938647;29;20032;-82
2023/10/05 11:07:05;;;;;;;9.63;2.13;;;;;;;;;;4938278;29;20032;-82
2023/10/05 11:09:36;;;;;;;11.13;2.22;;;;;;;;;;4939105;29;20031;-82
2023/10/05 11:12:10;;;;;;;6.28;1.67;;;;;;;;;;4941113;29;20028;-82
2023/10/05 11:14:43;;;;;;;6.57;1.98;;;;;;;;;;4942181;29;20034;-82
2023/10/05 11:17:30;;;;;;;7.13;1.90;;;;;;;;;;4942078;29;20465;-82
2023/10/05 11:19:58;;;;;;;6.32;2.00;;;;;;;;;;4941999;29;20028;-82
2023/10/05 11:22:24;;;;;;;7.45;2.00;;;;;;;;;;4942342;29;20422;-82
2023/10/05 11:25:00;;;;;;;9.38;2.47;;;;;;;;;;4941552;29;20059;-82
2023/10/05 11:27:26;;;;;;;7.25;1.92;;;;;;;;;;4941908;29;20032;-82
2023/10/05 11:29:55;;;;;;;8.00;2.22;;;;;;;;;;4941844;29;20426;-82
2023/10/05 11:32:25;;;;;;;7.15;2.28;;;;;;;;;;4944468;29;20145;-83
2023/10/05 11:34:55;;;;;;;;;;;;;;;;;;4945122;29;20110;-82
2023/10/05 11:37:25;;;;;;;10.70;2.63;;;;;;;;;;4945577;29;19907;-82
2023/10/05 11:39:58;;;;;;;6.60;1.60;;;;;;;;;;4943739;29;20039;-82
2023/10/05 11:42:24;;;;;;;5.70;2.03;;;;;;;;;;4945008;29;20036;-82
2023/10/05 11:45:16;;;;;;;5.10;1.65;;;;;;;;;;4944267;29;20111;-83
2023/10/05 11:47:47;;;;;;;10.05;2.30;;;;;;;;;;4944452;29;20051;-82
2023/10/05 11:53:12;;;;;;;7.70;1.88;;;;;;;;;;4943621;29;20032;-82
2023/10/05 11:55:39;;;;;;;8.32;1.70;;;;;;;;;;4941269;29;20052;-82
2023/10/05 11:58:08;;;;;;;7.50;1.90;;;;;;;;;;4940961;29;20372;-82
2023/10/05 12:00:35;;;;;;;8.55;2.08;;;;;;;;;;4940005;29;20478;-82
2023/10/05 12:03:01;;;;;;;6.25;1.92;;;;;;;;;;4939230;29;20100;-82
2023/10/05 12:05:30;;;;;;;4.90;1.83;;;;;;;;;;4940177;29;20542;-82
2023/10/05 12:07:59;;;;;;;5.90;1.95;;;;;;;;;;4939365;29;20048;-82
2023/10/05 12:10:25;;;;;;;6.90;1.75;;;;;;;;;;4939969;29;20042;-82
2023/10/05 12:12:51;;;;;;;7.88;1.88;;;;;;;;;;4940798;29;20070;-82
2023/10/05 12:15:19;;;;;;;7.80;1.98;;;;;;;;;;4939323;29;20038;-82
2023/10/05 12:17:45;;;;;;;7.53;2.10;;;;;;;;;;4941598;29;20521;-82
2023/10/05 12:20:15;;;;;;;7.20;1.63;;;;;;;;;;4937920;29;20064;-82
2023/10/05 12:22:41;;;;;;;7.20;1.77;;;;;;;;;;4941611;29;20031;-82
2023/10/05 12:25:08;;;;;;;6.50;2.13;;;;;;;;;;4943754;29;20521;-82
2023/10/05 12:27:35;;;;;;;10.13;1.88;;;;;;;;;;4945196;29;20032;-82
2023/10/05 12:30:01;;;;;;;10.50;1.75;;;;;;;;;;4943876;29;20028;-82
2023/10/05 12:32:29;;;;;;;7.30;1.98;;;;;;;;;;4945594;29;20022;-82
2023/10/05 12:34:59;;;;;;;5.40;1.60;;;;;;;;;;4944571;29;20034;-82
2023/10/05 12:37:25;;;;;;;10.32;2.50;;;;;;;;;;4945772;29;20019;-82
2023/10/05 12:39:51;;;;;;;8.50;2.40;;;;;;;;;;4944984;29;20032;-82
2023/10/05 12:42:17;;;;;;;8.82;2.22;;;;;;;;;;4940214;29;20118;-82
2023/10/05 12:44:43;;;;;;;7.97;1.88;;;;;;;;;;4951680;29;20051;-82
2023/10/05 12:47:09;;;;;;;5.15;1.58;;;;;;;;;;4946452;29;20050;-83
2023/10/05 12:49:35;;;;;;;9.43;2.22;;;;;;;;;;4951805;29;20055;-82
2023/10/05 12:52:01;;;;;;;6.72;1.85;;;;;;;;;;4950765;29;20475;-82
2023/10/05 12:54:34;;;;;;;11.15;2.00;;;;;;;;;;4939780;29;20035;-82
2023/10/05 12:57:09;;;;;;;6.53;1.70;;;;;;;;;;4940173;29;20028;-82
2023/10/05 12:59:35;;;;;;;4.60;1.55;;;;;;;;;;4939401;29;20028;-81
2023/10/05 13:02:14;;;;;;;5.88;1.92;;;;;;;;;;4938045;29;20028;-81
2023/10/05 13:04:42;;;;;;;6.05;1.65;;;;;;;;;;4938621;29;20027;-82
2023/10/05 13:07:08;;;;;;;6.03;1.80;;;;;;;;;;4939487;29;20118;-82
2023/10/05 13:09:35;;;;;;;6.28;1.80;;;;;;;;;;4940291;29;20567;-82
2023/10/05 13:12:08;;;;;;;4.97;1.80;;;;;;;;;;4940427;29;20060;-82
2023/10/05 13:14:34;;;;;;;7.60;1.80;;;;;;;;;;4941166;29;20569;-82
2023/10/05 13:17:00;;;;;;;4.72;1.70;;;;;;;;;;4940886;29;20115;-82
2023/10/05 13:19:26;;;;;;;5.25;1.80;;;;;;;;;;4939348;29;20444;-82
2023/10/05 13:21:52;;;;;;;4.30;1.45;;;;;;;;;;4939456;29;20459;-82
2023/10/05 13:24:18;;;;;;;7.07;1.77;;;;;;;;;;4939139;29;20050;-83
2023/10/05 13:26:44;;;;;;;7.53;1.85;;;;;;;;;;4939580;29;20130;-82
2023/10/05 13:29:11;;;;;;;7.47;1.80;;;;;;;;;;4937637;29;20027;-82
2023/10/05 13:31:38;;;;;;;8.82;1.60;;;;;;;;;;4938803;29;20123;-82
2023/10/05 13:34:09;;;;;;;7.72;1.63;;;;;;;;;;4938987;29;20027;-81
2023/10/05 13:36:35;;;;;;;7.65;1.40;;;;;;;;;;4937894;29;20042;-82
2023/10/05 13:39:09;;;;;;;7.43;1.95;;;;;;;;;;4938381;29;20028;-81
2023/10/05 13:41:38;;;;;;;7.38;1.58;;;;;;;;;;4938844;29;20047;-82
2023/10/05 13:44:04;;;;;;;4.20;1.33;;;;;;;;;;4938495;29;20071;-82
2023/10/05 13:46:35;;;;;;;7.03;1.95;;;;;;;;;;4943586;29;20075;-82
2023/10/05 13:49:03;;;;;;;7.68;1.40;;;;;;;;;;4950708;29;20047;-82
2023/10/05 13:51:34;;;;;;;5.78;1.80;;;;;;;;;;4956444;29;20028;-81
2023/10/05 13:54:06;;;;;;;6.68;1.67;;;;;;;;;;4950138;29;20028;-81
2023/10/05 13:56:32;;;;;;;7.32;1.48;;;;;;;;;;4938175;29;20031;-81
2023/10/05 13:59:01;;;;;;;7.07;2.05;;;;;;;;;;4938483;29;20496;-82
2023/10/05 14:01:43;;;;;;;5.60;1.48;;;;;;;;;;4937333;29;20035;-82
2023/10/05 14:04:09;;;;;;;6.70;1.45;;;;;;;;;;4938212;29;20024;-81
2023/10/05 14:06:36;;;;;;;7.38;1.60;;;;;;;;;;4937702;29;20039;-81
2023/10/05 14:09:06;;;;;;;4.88;1.75;;;;;;;;;;4937616;29;20051;-82
2023/10/05 14:11:37;;;;;;;5.93;1.73;;;;;;;;;;4940511;29;20094;-82
2023/10/05 14:14:05;;;;;;;6.32;1.70;;;;;;;;;;4941854;29;20024;-81
2023/10/05 14:16:50;;;;;;;4.25;1.45;;;;;;;;;;4941480;29;20028;-82
2023/10/05 14:19:16;;;;;;;5.70;1.45;;;;;;;;;;4939531;29;20032;-82
2023/10/05 14:21:43;;;;;;;7.85;1.65;;;;;;;;;;4937604;29;20020;-82
2023/10/05 14:24:10;;;;;;;6.22;1.42;;;;;;;;;;4937615;29;20459;-82
2023/10/05 14:26:37;;;;;;;7.22;1.70;;;;;;;;;;4938452;29;20055;-81
2023/10/05 14:29:03;;;;;;;7.00;1.55;;;;;;;;;;4936925;29;20024;-82
2023/10/05 14:31:29;;;;;;;5.07;1.70;;;;;;;;;;4937155;29;20038;-82
2023/10/05 14:33:55;;;;;;;7.18;2.03;;;;;;;;;;4938550;29;20028;-82
2023/10/05 14:36:22;;;;;;;5.78;1.90;;;;;;;;;;4937654;29;20035;-82
2023/10/05 14:38:51;;;;;;;6.07;1.55;;;;;;;;;;4937631;29;20079;-82
2023/10/05 14:41:19;;;;;;;8.70;2.00;;;;;;;;;;4937646;29;20030;-82
2023/10/05 14:43:45;;;;;;;6.05;1.80;;;;;;;;;;4936000;29;20633;-81
2023/10/05 14:46:13;;;;;;;7.65;1.70;;;;;;;;;;4937797;29;20039;-82
2023/10/05 14:48:40;;;;;;;6.13;1.60;;;;;;;;;;4936315;29;20044;-82
2023/10/05 14:51:15;;;;;;;7.47;1.55;;;;;;;;;;4935943;29;20098;-82
2023/10/05 14:53:41;;;;;;;4.90;1.50;;;;;;;;;;4938756;29;20034;-82
2023/10/05 14:56:07;;;;;;;6.88;1.70;;;;;;;;;;4938673;29;20079;-82
2023/10/05 14:58:33;;;;;;;4.57;1.27;;;;;;;;;;4938797;29;20435;-82
2023/10/05 15:00:59;;;;;;;7.93;1.95;;;;;;;;;;4941169;29;20075;-82
2023/10/05 15:03:25;;;;;;;4.40;1.58;;;;;;;;;;4941027;29;20039;-82
2023/10/05 15:05:52;;;;;;;4.93;1.40;;;;;;;;;;4941859;29;20039;-82
2023/10/05 15:08:18;;;;;;;6.68;2.00;;;;;;;;;;4941282;29;20024;-82